Time;durP1;ratioP1;P1;durP2;ratioP2;P2;SDS_P1;SDS_P2;PMS_P1;PMS_P2;Temp;Humidity;BMP_temperature;BMP_pressure;BME280_temperature;BME280_humidity;BME280_pressure;Samples;Min_cycle;Max_cycle;Signal;HPM_P1;HPM_P2
2022/03/20 00:03:02;;;;;;;8.87;7.97;;;;;;;;;;6165044;28;20254;-86
2022/03/20 00:06:31;;;;;;;9.60;8.63;;;;;;;;;;6179143;28;20238;-85
2022/03/20 00:09:53;;;;;;;8.50;7.70;;;;;;;;;;6175384;28;20221;-86
2022/03/20 00:13:20;;;;;;;11.77;10.30;;;;;;;;;;6176988;28;20230;-86
2022/03/20 00:16:41;;;;;;;11.30;8.77;;;;;;;;;;6178625;28;20659;-85
2022/03/20 00:20:02;;;;;;;10.13;9.13;;;;;;;;;;6181376;28;20258;-86
2022/03/20 00:23:24;;;;;;;12.03;9.03;;;;;;;;;;6187804;28;20320;-85
2022/03/20 00:26:45;;;;;;;11.53;9.37;;;;;;;;;;6179421;28;20222;-84
2022/03/20 00:30:09;;;;;;;10.50;9.47;;;;;;;;;;6183690;28;20627;-85
2022/03/20 00:33:30;;;;;;;11.20;10.17;;;;;;;;;;6178673;28;20234;-85
2022/03/20 00:36:51;;;;;;;11.60;9.83;;;;;;;;;;6179940;28;20266;-84
2022/03/20 00:40:12;;;;;;;12.53;10.60;;;;;;;;;;6186534;28;20262;-82
2022/03/20 00:43:34;;;;;;;12.37;10.73;;;;;;;;;;6174486;28;20246;-84
2022/03/20 00:46:56;;;;;;;12.10;10.30;;;;;;;;;;6178462;28;20246;-84
2022/03/20 00:50:17;;;;;;;11.70;10.60;;;;;;;;;;6174529;28;20312;-84
2022/03/20 00:53:38;;;;;;;12.87;11.57;;;;;;;;;;6185048;28;20246;-85
2022/03/20 00:57:13;;;;;;;11.83;10.73;;;;;;;;;;6186126;28;20233;-85
2022/03/20 01:00:43;;;;;;;13.67;11.30;;;;;;;;;;6177308;28;20237;-84
2022/03/20 01:04:05;;;;;;;13.00;11.70;;;;;;;;;;6179442;28;20234;-84
2022/03/20 01:07:30;;;;;;;13.30;11.93;;;;;;;;;;6182693;28;20313;-86
2022/03/20 01:10:51;;;;;;;12.77;11.47;;;;;;;;;;6171784;28;20633;-83
2022/03/20 01:14:13;;;;;;;13.33;12.03;;;;;;;;;;6163323;28;20229;-87
2022/03/20 01:17:34;;;;;;;19.10;13.97;;;;;;;;;;6181949;28;20236;-85
2022/03/20 01:20:56;;;;;;;15.53;13.93;;;;;;;;;;6152845;28;20226;-86
2022/03/20 01:24:18;;;;;;;16.57;14.77;;;;;;;;;;6181306;28;20533;-84
2022/03/20 01:27:39;;;;;;;14.60;13.13;;;;;;;;;;6177842;28;20230;-84
2022/03/20 01:31:25;;;;;;;14.17;12.87;;;;;;;;;;6167068;28;20250;-85
2022/03/20 01:34:47;;;;;;;16.00;14.27;;;;;;;;;;6157900;28;20696;-86
2022/03/20 01:38:20;;;;;;;15.13;13.53;;;;;;;;;;6167713;28;20278;-86
2022/03/20 01:41:46;;;;;;;15.80;14.20;;;;;;;;;;6181217;28;20241;-85
2022/03/20 01:45:15;;;;;;;15.83;14.23;;;;;;;;;;6185584;28;20245;-84
2022/03/20 01:48:36;;;;;;;18.10;14.93;;;;;;;;;;6166531;28;20250;-86
2022/03/20 01:52:14;;;;;;;18.50;16.53;;;;;;;;;;6177130;28;20223;-87
2022/03/20 01:55:47;;;;;;;17.63;15.80;;;;;;;;;;6186070;28;20564;-86
2022/03/20 01:59:24;;;;;;;18.47;16.23;;;;;;;;;;6152940;28;20231;-87
2022/03/20 02:02:50;;;;;;;15.90;14.33;;;;;;;;;;6163590;28;20615;-87
2022/03/20 02:06:11;;;;;;;16.53;14.10;;;;;;;;;;6176399;28;20505;-87
2022/03/20 02:09:41;;;;;;;16.50;14.90;;;;;;;;;;6142786;28;20234;-86
2022/03/20 02:13:04;;;;;;;20.07;16.73;;;;;;;;;;6156747;28;20641;-86
2022/03/20 02:16:26;;;;;;;16.57;14.67;;;;;;;;;;6177813;28;20226;-86
2022/03/20 02:19:59;;;;;;;16.20;14.67;;;;;;;;;;6186059;28;20230;-86
2022/03/20 02:23:22;;;;;;;15.67;14.20;;;;;;;;;;6160959;28;20265;-85
2022/03/20 02:26:43;;;;;;;16.33;14.63;;;;;;;;;;6174176;28;20651;-86
2022/03/20 02:30:18;;;;;;;18.13;15.17;;;;;;;;;;6173175;28;20237;-86
2022/03/20 02:33:42;;;;;;;18.23;16.40;;;;;;;;;;6172254;28;20301;-84
2022/03/20 02:37:08;;;;;;;15.00;13.60;;;;;;;;;;6151491;28;20242;-85
2022/03/20 02:40:35;;;;;;;16.20;13.77;;;;;;;;;;6151586;28;20225;-88
2022/03/20 02:44:11;;;;;;;16.90;15.10;;;;;;;;;;6170600;28;20592;-87
2022/03/20 02:51:09;;;;;;;15.17;13.57;;;;;;;;;;6167621;28;20233;-85
2022/03/20 02:54:44;;;;;;;16.03;14.50;;;;;;;;;;6173220;28;20242;-86
2022/03/20 02:58:12;;;;;;;17.63;15.80;;;;;;;;;;6176228;28;20506;-86
2022/03/20 03:01:34;;;;;;;19.03;16.60;;;;;;;;;;6120018;28;20530;-86
2022/03/20 03:05:11;;;;;;;17.40;14.90;;;;;;;;;;6173994;28;20218;-85
2022/03/20 03:12:41;;;;;;;17.00;15.30;;;;;;;;;;6160181;28;20245;-86
2022/03/20 03:20:09;;;;;;;16.80;15.03;;;;;;;;;;6147946;28;20246;-85
2022/03/20 03:23:31;;;;;;;18.37;16.17;;;;;;;;;;6184266;28;20225;-85
2022/03/20 03:26:52;;;;;;;17.37;15.70;;;;;;;;;;6173034;28;20262;-86
2022/03/20 03:30:15;;;;;;;17.27;15.47;;;;;;;;;;6163441;28;20325;-87
2022/03/20 03:35:41;;;;;;;16.60;14.90;;;;;;;;;;6175863;28;20234;-85
2022/03/20 03:37:22;;;;;;;18.77;16.73;;;;;;;;;;6179623;28;20332;-85
2022/03/20 03:40:45;;;;;;;19.03;17.10;;;;;;;;;;6168697;28;20229;-85
2022/03/20 03:44:06;;;;;;;16.47;14.97;;;;;;;;;;6165435;28;20229;-85
2022/03/20 03:47:28;;;;;;;17.97;16.07;;;;;;;;;;6185910;28;20222;-85
2022/03/20 03:50:53;;;;;;;16.77;15.20;;;;;;;;;;6163110;28;20230;-85
2022/03/20 03:54:25;;;;;;;17.97;16.07;;;;;;;;;;6155686;28;20230;-86
2022/03/20 03:57:50;;;;;;;21.27;15.27;;;;;;;;;;6185349;28;20230;-84
2022/03/20 04:01:17;;;;;;;17.27;15.57;;;;;;;;;;6141202;28;20231;-86
2022/03/20 04:09:11;;;;;;;18.73;15.77;;;;;;;;;;6143815;28;20234;-87
2022/03/20 04:12:33;;;;;;;18.60;16.80;;;;;;;;;;6169515;28;20249;-83
2022/03/20 04:15:54;;;;;;;18.33;16.53;;;;;;;;;;6185229;28;20225;-84
2022/03/20 04:19:19;;;;;;;18.50;16.70;;;;;;;;;;6185302;28;20249;-85
2022/03/20 04:23:42;;;;;;;18.47;16.63;;;;;;;;;;6192260;28;20232;-85
2022/03/20 04:26:34;;;;;;;17.93;16.10;;;;;;;;;;6158787;28;20230;-86
2022/03/20 04:33:40;;;;;;;19.03;16.87;;;;;;;;;;6112147;28;20227;-87
2022/03/20 04:37:18;;;;;;;18.10;16.20;;;;;;;;;;6131462;28;20235;-86
2022/03/20 04:40:39;;;;;;;21.07;17.63;;;;;;;;;;6146061;28;20227;-87
2022/03/20 04:44:14;;;;;;;18.13;16.33;;;;;;;;;;6123927;28;20381;-87
2022/03/20 04:58:53;;;;;;;19.37;17.47;;;;;;;;;;6145342;28;20222;-85
2022/03/20 05:02:16;;;;;;;20.40;18.37;;;;;;;;;;6137008;28;20624;-85
2022/03/20 05:05:38;;;;;;;19.33;17.43;;;;;;;;;;6137917;28;20230;-84
2022/03/20 05:13:19;;;;;;;19.10;17.20;;;;;;;;;;6136726;28;20231;-84
2022/03/20 05:16:20;;;;;;;20.50;18.37;;;;;;;;;;6134297;28;20326;-83
2022/03/20 05:19:42;;;;;;;21.03;19.03;;;;;;;;;;6135260;28;20234;-84
2022/03/20 05:23:03;;;;;;;19.47;17.47;;;;;;;;;;6138317;28;20265;-83
2022/03/20 05:26:25;;;;;;;18.60;16.80;;;;;;;;;;6137320;28;20314;-85
2022/03/20 05:29:47;;;;;;;21.10;18.97;;;;;;;;;;6137343;28;20325;-86
2022/03/20 05:33:31;;;;;;;19.60;17.70;;;;;;;;;;6111840;28;20231;-87
2022/03/20 05:37:20;;;;;;;20.93;17.33;;;;;;;;;;6106848;28;20279;-88
2022/03/20 05:40:44;;;;;;;18.77;16.87;;;;;;;;;;6112786;28;20232;-86
2022/03/20 05:44:12;;;;;;;20.57;18.50;;;;;;;;;;6121134;28;20235;-86
2022/03/20 05:47:35;;;;;;;17.83;16.03;;;;;;;;;;6118406;28;20247;-87
2022/03/20 05:50:58;;;;;;;17.87;16.00;;;;;;;;;;6111365;28;22218;-86
2022/03/20 05:54:23;;;;;;;20.30;17.97;;;;;;;;;;6112669;28;20239;-85
2022/03/20 05:58:13;;;;;;;19.57;17.47;;;;;;;;;;6114601;28;20331;-86
2022/03/20 06:01:43;;;;;;;25.23;18.77;;;;;;;;;;6118264;28;20227;-86
2022/03/20 06:05:08;;;;;;;18.87;16.97;;;;;;;;;;6125033;28;20235;-85
2022/03/20 06:08:29;;;;;;;20.33;18.37;;;;;;;;;;6116091;28;20308;-82
2022/03/20 06:11:57;;;;;;;19.07;17.13;;;;;;;;;;6114549;28;20246;-87
2022/03/20 06:15:18;;;;;;;18.67;16.93;;;;;;;;;;6112109;28;20246;-83
2022/03/20 06:18:55;;;;;;;18.83;16.90;;;;;;;;;;6106178;28;20228;-87
2022/03/20 06:22:18;;;;;;;18.60;16.60;;;;;;;;;;6122033;28;20342;-85
2022/03/20 06:25:51;;;;;;;18.40;16.50;;;;;;;;;;6119277;28;20231;-87
2022/03/20 06:29:18;;;;;;;19.17;17.30;;;;;;;;;;6127283;28;20248;-86
2022/03/20 06:32:39;;;;;;;19.83;17.73;;;;;;;;;;6118596;28;20231;-86
2022/03/20 06:36:02;;;;;;;20.93;18.83;;;;;;;;;;6102526;28;20543;-87
2022/03/20 06:39:25;;;;;;;19.40;17.47;;;;;;;;;;6137779;28;20247;-84
2022/03/20 06:42:46;;;;;;;18.60;16.00;;;;;;;;;;6135652;28;20239;-84
2022/03/20 06:46:09;;;;;;;18.33;16.43;;;;;;;;;;6138334;28;20325;-88
2022/03/20 06:49:30;;;;;;;19.83;17.80;;;;;;;;;;6142889;28;20234;-84
2022/03/20 06:52:51;;;;;;;19.20;17.20;;;;;;;;;;6123530;28;20222;-85
2022/03/20 06:56:13;;;;;;;19.90;17.17;;;;;;;;;;6133388;28;20231;-83
2022/03/20 06:59:34;;;;;;;17.07;15.47;;;;;;;;;;6142573;28;20227;-85
2022/03/20 07:02:56;;;;;;;19.37;17.23;;;;;;;;;;6141804;28;20243;-85
2022/03/20 07:06:17;;;;;;;20.23;17.07;;;;;;;;;;6143254;28;20235;-86
2022/03/20 07:09:38;;;;;;;18.93;17.13;;;;;;;;;;6144683;28;20234;-83
2022/03/20 07:16:35;;;;;;;18.00;16.10;;;;;;;;;;6139488;28;20235;-82
2022/03/20 07:19:58;;;;;;;17.10;15.43;;;;;;;;;;6142867;28;20231;-82
2022/03/20 07:23:19;;;;;;;20.03;16.80;;;;;;;;;;6143168;28;20230;-84
2022/03/20 07:30:19;;;;;;;18.00;15.83;;;;;;;;;;6140418;28;20220;-83
2022/03/20 07:33:40;;;;;;;16.60;14.83;;;;;;;;;;6142417;28;20325;-85
2022/03/20 07:37:03;;;;;;;16.30;14.50;;;;;;;;;;6143382;28;20223;-83
2022/03/20 07:40:25;;;;;;;17.37;15.23;;;;;;;;;;6142759;28;20243;-84
2022/03/20 07:43:47;;;;;;;15.63;14.07;;;;;;;;;;6138717;28;20262;-83
2022/03/20 07:47:09;;;;;;;16.53;14.50;;;;;;;;;;6140388;28;20235;-83
2022/03/20 07:50:30;;;;;;;17.50;15.63;;;;;;;;;;6141724;28;20235;-84
2022/03/20 07:53:52;;;;;;;21.07;15.67;;;;;;;;;;6139411;28;20243;-84
2022/03/20 07:57:13;;;;;;;18.33;16.13;;;;;;;;;;6143152;28;20645;-85
2022/03/20 08:00:35;;;;;;;16.13;14.47;;;;;;;;;;6139257;28;20333;-83
2022/03/20 08:03:56;;;;;;;15.43;13.93;;;;;;;;;;6138909;28;20242;-84
2022/03/20 08:07:17;;;;;;;18.20;14.83;;;;;;;;;;6139634;28;20231;-83
2022/03/20 08:10:40;;;;;;;16.63;14.37;;;;;;;;;;6142097;28;20231;-82
2022/03/20 08:14:01;;;;;;;15.83;14.07;;;;;;;;;;6139409;28;20314;-83
2022/03/20 08:17:21;;;;;;;17.00;15.20;;;;;;;;;;6141592;28;20510;-83
2022/03/20 08:20:42;;;;;;;17.17;15.53;;;;;;;;;;6146218;28;20226;-84
2022/03/20 08:24:04;;;;;;;16.43;14.73;;;;;;;;;;6140705;28;20223;-84
2022/03/20 08:27:28;;;;;;;15.33;13.83;;;;;;;;;;6142199;28;20235;-83
2022/03/20 08:30:49;;;;;;;15.27;13.67;;;;;;;;;;6139089;28;20239;-83
2022/03/20 08:34:10;;;;;;;16.27;14.07;;;;;;;;;;6143472;28;20255;-83
2022/03/20 08:37:31;;;;;;;17.47;15.77;;;;;;;;;;6143580;28;20227;-82
2022/03/20 08:40:52;;;;;;;15.50;13.97;;;;;;;;;;6139601;28;20523;-84
2022/03/20 08:44:15;;;;;;;16.63;14.93;;;;;;;;;;6140178;28;20298;-84
2022/03/20 08:47:36;;;;;;;17.60;14.17;;;;;;;;;;6138753;28;20314;-85
2022/03/20 08:50:57;;;;;;;17.37;14.20;;;;;;;;;;6138762;28;20250;-84
2022/03/20 08:54:18;;;;;;;17.00;15.50;;;;;;;;;;6140321;28;20276;-84
2022/03/20 08:57:40;;;;;;;17.83;16.20;;;;;;;;;;6140302;28;20721;-84
2022/03/20 09:01:02;;;;;;;16.23;14.30;;;;;;;;;;6137808;28;20227;-86
2022/03/20 09:04:23;;;;;;;18.47;16.47;;;;;;;;;;6136035;28;20226;-84
2022/03/20 09:07:46;;;;;;;18.03;16.17;;;;;;;;;;6141535;28;20235;-83
2022/03/20 09:11:07;;;;;;;19.30;16.63;;;;;;;;;;6140337;28;20633;-84
2022/03/20 09:14:28;;;;;;;18.27;15.27;;;;;;;;;;6142103;28;20294;-85
2022/03/20 09:21:43;;;;;;;17.80;16.00;;;;;;;;;;6068195;29;20515;-84
2022/03/20 09:25:05;;;;;;;23.47;17.10;;;;;;;;;;6064058;29;20625;-83
2022/03/20 09:28:29;;;;;;;16.50;14.90;;;;;;;;;;6141575;28;20541;-82
2022/03/20 09:31:50;;;;;;;17.67;15.97;;;;;;;;;;6137946;28;20228;-86
2022/03/20 09:35:13;;;;;;;18.87;16.93;;;;;;;;;;6134020;28;20228;-83
2022/03/20 09:38:34;;;;;;;17.90;16.13;;;;;;;;;;6133360;28;20231;-84
2022/03/20 09:41:56;;;;;;;19.87;16.73;;;;;;;;;;6137813;28;20275;-79
2022/03/20 09:45:18;;;;;;;20.40;18.43;;;;;;;;;;6136492;28;20227;-83
2022/03/20 09:48:39;;;;;;;19.37;17.37;;;;;;;;;;6134836;28;20239;-75
2022/03/20 09:52:01;;;;;;;221.93;83.27;;;;;;;;;;6137425;28;20318;-84
2022/03/20 09:55:22;;;;;;;22.20;19.60;;;;;;;;;;6123556;28;20230;-80
2022/03/20 09:58:43;;;;;;;65.13;59.50;;;;;;;;;;6122801;28;20243;-78
2022/03/20 10:02:05;;;;;;;275.47;154.47;;;;;;;;;;6129820;28;20617;-79
2022/03/20 10:05:26;;;;;;;77.90;71.33;;;;;;;;;;6127195;28;20243;-74
2022/03/20 10:09:04;;;;;;;80.43;73.90;;;;;;;;;;6135219;28;20231;-81
2022/03/20 10:12:31;;;;;;;20.60;18.50;;;;;;;;;;6136786;28;20303;-80
2022/03/20 10:15:52;;;;;;;18.80;16.80;;;;;;;;;;6135843;28;20673;-78
2022/03/20 10:19:31;;;;;;;19.83;17.73;;;;;;;;;;6138939;28;20223;-76
2022/03/20 10:22:52;;;;;;;18.60;16.43;;;;;;;;;;6136231;28;20226;-75
2022/03/20 10:26:17;;;;;;;20.63;18.63;;;;;;;;;;6136487;28;20625;-74
2022/03/20 10:29:52;;;;;;;20.13;18.23;;;;;;;;;;6142638;28;20227;-76
2022/03/20 10:33:14;;;;;;;16.57;14.80;;;;;;;;;;6140644;28;20509;-77
2022/03/20 10:36:36;;;;;;;18.47;16.63;;;;;;;;;;6141507;28;20566;-77
2022/03/20 10:40:08;;;;;;;19.63;17.80;;;;;;;;;;6141234;28;20343;-76
2022/03/20 10:43:30;;;;;;;19.37;16.97;;;;;;;;;;6143063;28;20616;-74
2022/03/20 10:46:57;;;;;;;19.53;17.53;;;;;;;;;;6137891;28;20250;-74
2022/03/20 10:50:17;;;;;;;21.37;19.20;;;;;;;;;;6141638;28;20231;-75
2022/03/20 10:53:53;;;;;;;17.50;15.80;;;;;;;;;;6136301;28;20236;-74
2022/03/20 10:57:15;;;;;;;18.35;16.48;;;;;;;;;;6143100;28;20749;-74
2022/03/20 11:00:46;;;;;;;19.35;17.38;;;;;;;;;;6140067;28;20219;-74
2022/03/20 11:04:09;;;;;;;17.67;16.00;;;;;;;;;;6139926;28;20798;-75
2022/03/20 11:07:30;;;;;;;16.15;14.55;;;;;;;;;;6142298;28;20322;-75
2022/03/20 11:10:52;;;;;;;16.60;15.20;;;;;;;;;;6140675;28;20609;-75
2022/03/20 11:14:15;;;;;;;16.45;14.75;;;;;;;;;;6136531;28;20235;-74
2022/03/20 11:17:43;;;;;;;18.45;16.63;;;;;;;;;;6138501;28;20227;-74
2022/03/20 11:21:06;;;;;;;17.35;15.85;;;;;;;;;;6139382;28;20322;-74
2022/03/20 11:24:27;;;;;;;18.20;16.45;;;;;;;;;;6139943;28;20235;-73
2022/03/20 11:27:53;;;;;;;16.98;15.48;;;;;;;;;;6141673;28;20613;-77
2022/03/20 11:31:14;;;;;;;17.80;16.20;;;;;;;;;;6134715;28;20317;-74
2022/03/20 11:34:38;;;;;;;16.73;15.18;;;;;;;;;;6140709;28;20223;-74
2022/03/20 11:38:13;;;;;;;15.65;14.25;;;;;;;;;;6141914;28;20619;-74
2022/03/20 11:41:34;;;;;;;17.02;15.63;;;;;;;;;;6138224;28;20317;-74
2022/03/20 11:45:09;;;;;;;16.63;15.13;;;;;;;;;;6139045;28;20701;-74
2022/03/20 11:48:30;;;;;;;17.83;16.02;;;;;;;;;;6139524;28;20517;-74
2022/03/20 11:52:07;;;;;;;15.85;14.45;;;;;;;;;;6141370;28;20247;-74
2022/03/20 11:55:31;;;;;;;17.20;15.50;;;;;;;;;;6138840;28;20255;-74
2022/03/20 11:58:53;;;;;;;16.10;14.68;;;;;;;;;;6137225;28;20314;-81
2022/03/20 12:02:16;;;;;;;16.00;14.60;;;;;;;;;;6137043;28;20235;-80
2022/03/20 12:05:44;;;;;;;16.67;15.07;;;;;;;;;;6137217;28;20349;-83
2022/03/20 12:09:19;;;;;;;17.90;16.20;;;;;;;;;;6141075;28;20230;-83
2022/03/20 12:12:54;;;;;;;16.17;14.80;;;;;;;;;;6120773;28;20256;-81
2022/03/20 12:16:54;;;;;;;19.58;17.65;;;;;;;;;;6139298;28;20235;-80
2022/03/20 12:21:02;;;;;;;17.23;15.52;;;;;;;;;;6141673;28;20267;-79
2022/03/20 12:24:46;;;;;;;18.15;16.33;;;;;;;;;;6134452;28;20231;-78
2022/03/20 12:28:28;;;;;;;17.95;16.33;;;;;;;;;;6144032;28;20262;-78
2022/03/20 12:31:55;;;;;;;18.92;17.20;;;;;;;;;;6135267;28;20617;-78
2022/03/20 12:35:19;;;;;;;18.02;16.30;;;;;;;;;;6140765;28;20612;-78
2022/03/20 12:38:41;;;;;;;16.75;15.20;;;;;;;;;;6141613;28;20641;-79
2022/03/20 12:42:15;;;;;;;18.85;17.15;;;;;;;;;;6141644;28;20242;-79
2022/03/20 12:45:39;;;;;;;18.45;16.95;;;;;;;;;;6135246;28;20325;-79
2022/03/20 12:49:00;;;;;;;16.95;15.32;;;;;;;;;;6141801;28;20231;-79
2022/03/20 12:52:21;;;;;;;18.08;16.08;;;;;;;;;;6140555;28;20632;-80
2022/03/20 12:55:43;;;;;;;15.90;14.48;;;;;;;;;;6138850;28;20246;-79
2022/03/20 12:59:19;;;;;;;17.75;15.70;;;;;;;;;;6140415;28;20234;-79
2022/03/20 13:03:00;;;;;;;16.40;14.98;;;;;;;;;;6138250;28;20245;-80
2022/03/20 13:06:28;;;;;;;16.08;14.52;;;;;;;;;;6138994;28;20238;-80
2022/03/20 13:09:57;;;;;;;17.95;16.02;;;;;;;;;;6136965;28;20559;-80
2022/03/20 13:13:20;;;;;;;17.52;15.82;;;;;;;;;;6133058;28;20223;-83
2022/03/20 13:16:49;;;;;;;15.38;14.02;;;;;;;;;;6136593;28;20242;-82
2022/03/20 13:20:18;;;;;;;17.90;15.65;;;;;;;;;;6137608;28;20238;-82
2022/03/20 13:23:46;;;;;;;16.40;14.82;;;;;;;;;;6136375;28;20239;-84
2022/03/20 13:27:08;;;;;;;16.00;14.43;;;;;;;;;;6135679;28;20243;-81
2022/03/20 13:30:37;;;;;;;15.85;14.25;;;;;;;;;;6138668;28;20253;-82
2022/03/20 13:34:01;;;;;;;15.85;14.20;;;;;;;;;;6142044;28;21722;-80
2022/03/20 13:37:21;;;;;;;16.27;14.77;;;;;;;;;;6140824;28;20231;-77
2022/03/20 13:40:42;;;;;;;17.10;15.45;;;;;;;;;;6133372;28;20494;-76
2022/03/20 13:44:04;;;;;;;15.07;13.70;;;;;;;;;;6137524;28;20258;-74
2022/03/20 13:47:25;;;;;;;15.65;14.13;;;;;;;;;;6136675;28;20251;-74
2022/03/20 13:50:49;;;;;;;16.08;14.57;;;;;;;;;;6130659;28;20231;-81
2022/03/20 13:54:11;;;;;;;14.77;13.40;;;;;;;;;;6137985;28;20223;-78
2022/03/20 13:57:33;;;;;;;18.23;16.55;;;;;;;;;;6146334;28;20238;-78
2022/03/20 14:00:59;;;;;;;13.95;12.65;;;;;;;;;;6141182;28;20751;-78
2022/03/20 14:04:21;;;;;;;16.40;14.90;;;;;;;;;;6143637;28;20244;-76
2022/03/20 14:07:44;;;;;;;14.45;12.90;;;;;;;;;;6147442;28;20318;-76
2022/03/20 14:11:05;;;;;;;13.35;12.05;;;;;;;;;;6138265;28;20238;-77
2022/03/20 14:14:41;;;;;;;14.43;12.98;;;;;;;;;;6139300;28;20318;-76
2022/03/20 14:18:12;;;;;;;15.07;13.70;;;;;;;;;;6147018;28;20246;-78
2022/03/20 14:21:34;;;;;;;15.73;13.65;;;;;;;;;;6146944;28;20231;-78
2022/03/20 14:24:57;;;;;;;15.68;14.18;;;;;;;;;;6146785;28;20227;-77
2022/03/20 14:28:23;;;;;;;14.85;13.35;;;;;;;;;;6146906;28;20327;-78
2022/03/20 14:39:30;;;;;;;15.75;14.25;;;;;;;;;;6138725;28;20227;-77
2022/03/20 14:43:08;;;;;;;14.77;13.27;;;;;;;;;;6140659;28;20259;-77
2022/03/20 14:46:30;;;;;;;15.82;14.02;;;;;;;;;;6141910;28;20239;-77
2022/03/20 14:49:53;;;;;;;18.27;14.93;;;;;;;;;;6142655;28;20227;-75
2022/03/20 14:53:21;;;;;;;15.98;14.32;;;;;;;;;;6125182;28;20255;-76
2022/03/20 14:56:42;;;;;;;16.48;15.07;;;;;;;;;;6140608;28;20941;-77
2022/03/20 15:00:06;;;;;;;21.27;19.05;;;;;;;;;;6149217;28;20246;-77
2022/03/20 15:03:27;;;;;;;15.35;13.93;;;;;;;;;;6143904;28;20551;-78
2022/03/20 15:06:50;;;;;;;14.27;12.87;;;;;;;;;;6147375;28;20227;-77
2022/03/20 15:13:50;;;;;;;13.97;12.67;;;;;;;;;;6141393;28;20239;-78
2022/03/20 15:17:12;;;;;;;15.80;14.20;;;;;;;;;;6142778;28;20227;-77
2022/03/20 15:20:34;;;;;;;15.43;13.87;;;;;;;;;;6143763;28;20534;-77
2022/03/20 15:23:55;;;;;;;14.97;13.47;;;;;;;;;;6136681;28;20313;-77
2022/03/20 15:27:16;;;;;;;15.80;14.40;;;;;;;;;;6148245;28;20243;-77
2022/03/20 15:30:38;;;;;;;14.67;13.33;;;;;;;;;;6139556;28;20652;-76
2022/03/20 15:34:01;;;;;;;16.93;15.30;;;;;;;;;;6135361;28;20231;-80
2022/03/20 15:37:22;;;;;;;14.63;13.17;;;;;;;;;;6145458;28;20216;-78
2022/03/20 15:40:43;;;;;;;15.93;14.40;;;;;;;;;;6136228;28;20238;-77
2022/03/20 15:44:04;;;;;;;15.50;14.00;;;;;;;;;;6141198;28;20235;-78
2022/03/20 15:47:25;;;;;;;15.93;14.00;;;;;;;;;;6122527;28;20235;-77
2022/03/20 15:50:47;;;;;;;15.27;13.77;;;;;;;;;;6136608;28;20235;-78
2022/03/20 15:54:09;;;;;;;14.27;12.87;;;;;;;;;;6133907;28;20251;-73
2022/03/20 15:57:30;;;;;;;15.97;11.20;;;;;;;;;;6133642;28;20329;-72
2022/03/20 16:00:51;;;;;;;16.93;14.57;;;;;;;;;;6130769;28;20227;-76
2022/03/20 16:04:12;;;;;;;15.10;13.53;;;;;;;;;;6117207;28;20234;-74
2022/03/20 16:07:34;;;;;;;15.83;13.10;;;;;;;;;;6135194;28;20699;-71
2022/03/20 16:10:56;;;;;;;15.03;13.53;;;;;;;;;;6132251;28;20238;-72
2022/03/20 16:14:17;;;;;;;14.00;12.33;;;;;;;;;;6131009;28;20318;-80
2022/03/20 16:17:38;;;;;;;16.53;13.60;;;;;;;;;;6131377;28;20223;-78
2022/03/20 16:20:59;;;;;;;14.80;12.47;;;;;;;;;;6133424;28;20231;-71
2022/03/20 16:31:38;;;;;;;14.37;13.03;;;;;;;;;;6130729;28;20238;-77
2022/03/20 16:34:59;;;;;;;14.57;13.17;;;;;;;;;;6121913;28;20613;-72
2022/03/20 16:38:21;;;;;;;15.97;14.47;;;;;;;;;;6130230;28;20227;-73
2022/03/20 16:41:43;;;;;;;16.83;15.43;;;;;;;;;;6133934;28;20699;-74
2022/03/20 16:45:07;;;;;;;13.83;12.43;;;;;;;;;;6135568;28;20239;-71
2022/03/20 16:48:28;;;;;;;15.17;13.23;;;;;;;;;;6128615;28;20572;-72
2022/03/20 16:51:50;;;;;;;16.07;13.20;;;;;;;;;;6129487;28;20235;-71
2022/03/20 16:55:10;;;;;;;13.43;12.23;;;;;;;;;;6132771;28;20227;-72
2022/03/20 16:58:34;;;;;;;15.07;12.63;;;;;;;;;;6125049;28;20602;-73
2022/03/20 17:01:55;;;;;;;15.33;13.83;;;;;;;;;;6131024;28;20228;-72
2022/03/20 17:05:16;;;;;;;14.47;13.07;;;;;;;;;;6130808;28;20223;-71
2022/03/20 17:08:37;;;;;;;14.20;12.80;;;;;;;;;;6136141;28;20504;-71
2022/03/20 17:11:57;;;;;;;17.87;15.13;;;;;;;;;;6141101;28;20708;-71
2022/03/20 17:15:20;;;;;;;17.27;15.53;;;;;;;;;;6139115;28;20231;-71
2022/03/20 17:18:41;;;;;;;17.53;15.20;;;;;;;;;;6134444;28;20235;-73
2022/03/20 17:22:02;;;;;;;18.57;16.70;;;;;;;;;;6136978;28;20227;-71
2022/03/20 17:25:24;;;;;;;18.47;13.97;;;;;;;;;;6141053;28;20612;-73
2022/03/20 17:28:45;;;;;;;14.13;12.77;;;;;;;;;;6134367;28;20231;-72
2022/03/20 17:32:08;;;;;;;15.67;14.17;;;;;;;;;;6137720;28;20315;-73
2022/03/20 17:35:30;;;;;;;16.17;14.50;;;;;;;;;;6135315;28;20506;-75
2022/03/20 17:38:50;;;;;;;15.07;13.47;;;;;;;;;;6134995;28;20322;-73
2022/03/20 17:42:11;;;;;;;18.37;15.70;;;;;;;;;;6142918;28;20258;-74
2022/03/20 17:45:36;;;;;;;16.87;15.13;;;;;;;;;;6136697;28;20470;-76
2022/03/20 17:48:58;;;;;;;19.30;17.40;;;;;;;;;;6141475;28;20311;-81
2022/03/20 17:52:19;;;;;;;16.73;15.07;;;;;;;;;;6146593;28;20321;-78
2022/03/20 17:55:40;;;;;;;15.23;13.63;;;;;;;;;;6142304;28;20330;-85
2022/03/20 17:59:23;;;;;;;16.83;15.17;;;;;;;;;;6142889;28;20617;-83
2022/03/20 18:10:01;;;;;;;18.67;16.47;;;;;;;;;;6140749;28;20239;-81
2022/03/20 18:13:23;;;;;;;15.77;14.13;;;;;;;;;;6133118;28;20235;-81
2022/03/20 18:16:44;;;;;;;16.93;15.30;;;;;;;;;;6142109;28;20511;-92
2022/03/20 18:20:08;;;;;;;16.07;14.43;;;;;;;;;;6124796;28;20585;-82
2022/03/20 18:23:31;;;;;;;18.60;14.77;;;;;;;;;;6131008;28;20234;-82
2022/03/20 18:26:52;;;;;;;16.80;15.00;;;;;;;;;;6142164;28;20235;-82
2022/03/20 18:30:15;;;;;;;20.67;17.30;;;;;;;;;;6143869;28;20239;-84
2022/03/20 18:33:38;;;;;;;21.67;19.00;;;;;;;;;;6140731;28;20243;-83
2022/03/20 18:37:02;;;;;;;22.53;20.13;;;;;;;;;;6142731;28;20231;-82
2022/03/20 18:40:24;;;;;;;17.67;15.67;;;;;;;;;;6143668;28;20235;-81
2022/03/20 18:43:45;;;;;;;18.13;16.20;;;;;;;;;;6129542;28;20235;-81
2022/03/20 18:47:07;;;;;;;16.50;14.20;;;;;;;;;;6138876;28;20231;-80
2022/03/20 18:50:27;;;;;;;17.73;16.03;;;;;;;;;;6128936;28;20231;-82
2022/03/20 18:53:49;;;;;;;18.17;16.13;;;;;;;;;;6128001;28;20626;-82
2022/03/20 18:57:11;;;;;;;16.13;14.43;;;;;;;;;;6126267;28;20597;-81
2022/03/20 19:00:35;;;;;;;16.67;14.80;;;;;;;;;;6119562;28;20227;-82
2022/03/20 19:03:56;;;;;;;20.90;18.70;;;;;;;;;;6140052;28;20613;-81
2022/03/20 19:07:19;;;;;;;28.53;20.37;;;;;;;;;;6144847;28;20243;-81
2022/03/20 19:10:40;;;;;;;18.13;16.33;;;;;;;;;;6144150;28;20231;-83
2022/03/20 19:14:03;;;;;;;18.17;16.10;;;;;;;;;;6142769;28;20235;-85
2022/03/20 19:17:24;;;;;;;17.03;14.83;;;;;;;;;;6135472;28;20239;-73
2022/03/20 19:20:45;;;;;;;15.63;13.50;;;;;;;;;;6135644;28;20613;-77
2022/03/20 19:24:07;;;;;;;14.53;13.03;;;;;;;;;;6144707;28;20227;-79
2022/03/20 19:27:28;;;;;;;16.43;13.90;;;;;;;;;;6141210;28;20234;-76
2022/03/20 19:30:51;;;;;;;15.07;13.37;;;;;;;;;;6144796;28;20227;-78
2022/03/20 19:41:28;;;;;;;12.53;11.33;;;;;;;;;;6141166;28;20613;-79
2022/03/20 19:44:49;;;;;;;15.60;13.03;;;;;;;;;;6141163;29;20235;-75
2022/03/20 19:48:11;;;;;;;14.30;12.80;;;;;;;;;;6140845;28;20551;-78
2022/03/20 19:51:32;;;;;;;13.37;11.97;;;;;;;;;;6138193;28;20894;-78
2022/03/20 19:54:53;;;;;;;13.63;12.33;;;;;;;;;;6141864;28;20223;-76
2022/03/20 19:58:14;;;;;;;12.70;11.40;;;;;;;;;;6123329;28;20234;-76
2022/03/20 20:01:35;;;;;;;14.23;12.87;;;;;;;;;;6141496;28;20227;-74
2022/03/20 20:04:58;;;;;;;16.03;12.20;;;;;;;;;;6144234;28;20592;-75
2022/03/20 20:09:22;;;;;;;13.47;11.87;;;;;;;;;;6133154;28;20331;-89
2022/03/20 20:17:34;;;;;;;15.03;13.53;;;;;;;;;;5968239;29;20334;-88
2022/03/20 20:21:16;;;;;;;14.70;12.00;;;;;;;;;;6055668;29;20270;-85
2022/03/20 20:24:39;;;;;;;12.90;11.57;;;;;;;;;;6135409;28;20748;-81
2022/03/20 20:28:04;;;;;;;14.77;13.27;;;;;;;;;;6136830;28;20263;-89
2022/03/20 20:31:34;;;;;;;15.37;13.23;;;;;;;;;;6138958;28;20231;-85
2022/03/20 20:34:56;;;;;;;13.93;12.63;;;;;;;;;;6121980;28;20321;-84
2022/03/20 20:38:19;;;;;;;12.70;11.40;;;;;;;;;;6141217;28;20238;-81
2022/03/20 20:41:46;;;;;;;12.53;11.20;;;;;;;;;;6143164;28;20258;-87
2022/03/20 20:45:08;;;;;;;14.60;13.07;;;;;;;;;;6120344;28;20238;-82
2022/03/20 20:48:29;;;;;;;12.80;11.43;;;;;;;;;;6131367;28;20618;-80
2022/03/20 20:51:54;;;;;;;12.63;11.50;;;;;;;;;;6137414;28;20234;-82
2022/03/20 20:55:16;;;;;;;14.83;13.30;;;;;;;;;;6133363;28;20227;-81
2022/03/20 20:58:40;;;;;;;13.10;11.63;;;;;;;;;;6139535;28;20223;-80
2022/03/20 21:02:02;;;;;;;13.97;12.47;;;;;;;;;;6136086;28;20223;-81
2022/03/20 21:05:23;;;;;;;12.37;11.17;;;;;;;;;;6124366;28;20227;-81
2022/03/20 21:12:24;;;;;;;13.43;12.03;;;;;;;;;;6137688;28;20239;-80
2022/03/20 21:15:45;;;;;;;14.17;12.73;;;;;;;;;;6135707;28;20223;-80
2022/03/20 21:19:06;;;;;;;13.47;12.03;;;;;;;;;;6141885;28;20681;-80